sensor_id;sensor_type;location;lat;lon;timestamp;P1;durP1;ratioP1;P2;durP2;ratioP2
31206;SDS011;17834;52.992;8.856;2023-05-07T00:00:21;23.73;;;11.50;;
31206;SDS011;17834;52.992;8.856;2023-05-07T00:02:46;20.02;;;10.65;;
31206;SDS011;17834;52.992;8.856;2023-05-07T00:05:12;24.17;;;12.75;;
31206;SDS011;17834;52.992;8.856;2023-05-07T00:07:38;20.48;;;9.98;;
31206;SDS011;17834;52.992;8.856;2023-05-07T00:10:04;20.88;;;11.63;;
31206;SDS011;17834;52.992;8.856;2023-05-07T00:12:31;22.58;;;10.70;;
31206;SDS011;17834;52.992;8.856;2023-05-07T00:14:58;25.95;;;12.93;;
31206;SDS011;17834;52.992;8.856;2023-05-07T00:17:25;19.02;;;10.82;;
31206;SDS011;17834;52.992;8.856;2023-05-07T00:19:50;18.17;;;10.70;;
31206;SDS011;17834;52.992;8.856;2023-05-07T00:22:16;22.55;;;10.32;;
31206;SDS011;17834;52.992;8.856;2023-05-07T00:24:42;21.52;;;11.32;;
31206;SDS011;17834;52.992;8.856;2023-05-07T00:27:07;22.08;;;11.98;;
31206;SDS011;17834;52.992;8.856;2023-05-07T00:29:33;20.00;;;10.75;;
31206;SDS011;17834;52.992;8.856;2023-05-07T00:31:59;21.10;;;11.60;;
31206;SDS011;17834;52.992;8.856;2023-05-07T00:34:24;20.25;;;11.25;;
31206;SDS011;17834;52.992;8.856;2023-05-07T00:36:50;22.95;;;12.50;;
31206;SDS011;17834;52.992;8.856;2023-05-07T00:39:15;20.52;;;11.35;;
31206;SDS011;17834;52.992;8.856;2023-05-07T00:41:41;21.52;;;12.10;;
31206;SDS011;17834;52.992;8.856;2023-05-07T00:44:07;19.75;;;10.95;;
31206;SDS011;17834;52.992;8.856;2023-05-07T00:46:32;22.33;;;11.70;;
31206;SDS011;17834;52.992;8.856;2023-05-07T00:48:58;20.67;;;11.80;;
31206;SDS011;17834;52.992;8.856;2023-05-07T00:51:25;24.02;;;13.15;;
31206;SDS011;17834;52.992;8.856;2023-05-07T00:53:52;22.20;;;11.80;;
31206;SDS011;17834;52.992;8.856;2023-05-07T00:56:20;20.17;;;12.00;;
31206;SDS011;17834;52.992;8.856;2023-05-07T00:58:46;25.75;;;13.43;;
31206;SDS011;17834;52.992;8.856;2023-05-07T01:01:12;23.63;;;13.05;;
31206;SDS011;17834;52.992;8.856;2023-05-07T01:03:38;24.92;;;12.52;;
31206;SDS011;17834;52.992;8.856;2023-05-07T01:06:03;24.60;;;12.07;;
31206;SDS011;17834;52.992;8.856;2023-05-07T01:08:30;24.13;;;12.15;;
31206;SDS011;17834;52.992;8.856;2023-05-07T01:10:57;24.95;;;12.40;;
31206;SDS011;17834;52.992;8.856;2023-05-07T01:13:23;23.77;;;11.43;;
31206;SDS011;17834;52.992;8.856;2023-05-07T01:15:49;24.15;;;12.20;;
31206;SDS011;17834;52.992;8.856;2023-05-07T01:18:15;22.88;;;11.48;;
31206;SDS011;17834;52.992;8.856;2023-05-07T01:20:41;23.80;;;12.55;;
31206;SDS011;17834;52.992;8.856;2023-05-07T01:23:07;19.92;;;11.18;;
31206;SDS011;17834;52.992;8.856;2023-05-07T01:25:34;22.55;;;12.30;;
31206;SDS011;17834;52.992;8.856;2023-05-07T01:28:00;22.80;;;12.65;;
31206;SDS011;17834;52.992;8.856;2023-05-07T01:30:26;23.10;;;11.23;;
31206;SDS011;17834;52.992;8.856;2023-05-07T01:33:00;23.55;;;12.45;;
31206;SDS011;17834;52.992;8.856;2023-05-07T01:35:30;21.25;;;11.25;;
31206;SDS011;17834;52.992;8.856;2023-05-07T01:38:00;24.40;;;11.27;;
31206;SDS011;17834;52.992;8.856;2023-05-07T01:40:29;23.73;;;11.20;;
31206;SDS011;17834;52.992;8.856;2023-05-07T01:42:55;23.10;;;11.88;;
31206;SDS011;17834;52.992;8.856;2023-05-07T01:45:21;22.98;;;12.25;;
31206;SDS011;17834;52.992;8.856;2023-05-07T01:47:47;22.52;;;11.70;;
31206;SDS011;17834;52.992;8.856;2023-05-07T01:50:13;21.58;;;11.90;;
31206;SDS011;17834;52.992;8.856;2023-05-07T01:52:41;21.70;;;11.88;;
31206;SDS011;17834;52.992;8.856;2023-05-07T01:55:07;22.35;;;12.13;;
31206;SDS011;17834;52.992;8.856;2023-05-07T01:57:33;22.85;;;11.98;;
31206;SDS011;17834;52.992;8.856;2023-05-07T01:59:59;22.75;;;12.15;;
31206;SDS011;17834;52.992;8.856;2023-05-07T02:02:24;23.58;;;11.50;;
31206;SDS011;17834;52.992;8.856;2023-05-07T02:04:50;22.52;;;11.35;;
31206;SDS011;17834;52.992;8.856;2023-05-07T02:07:15;22.17;;;10.48;;
31206;SDS011;17834;52.992;8.856;2023-05-07T02:09:41;23.02;;;11.48;;
31206;SDS011;17834;52.992;8.856;2023-05-07T02:12:06;21.38;;;11.63;;
31206;SDS011;17834;52.992;8.856;2023-05-07T02:14:32;21.17;;;11.40;;
31206;SDS011;17834;52.992;8.856;2023-05-07T02:16:58;22.45;;;10.73;;
31206;SDS011;17834;52.992;8.856;2023-05-07T02:19:23;20.55;;;10.43;;
31206;SDS011;17834;52.992;8.856;2023-05-07T02:21:49;22.98;;;10.43;;
31206;SDS011;17834;52.992;8.856;2023-05-07T02:24:15;21.30;;;10.13;;
31206;SDS011;17834;52.992;8.856;2023-05-07T02:26:41;26.02;;;11.90;;
31206;SDS011;17834;52.992;8.856;2023-05-07T02:29:06;22.83;;;11.20;;
31206;SDS011;17834;52.992;8.856;2023-05-07T02:31:32;17.98;;;9.63;;
31206;SDS011;17834;52.992;8.856;2023-05-07T02:33:59;22.80;;;10.95;;
31206;SDS011;17834;52.992;8.856;2023-05-07T02:36:25;21.40;;;10.00;;
31206;SDS011;17834;52.992;8.856;2023-05-07T02:38:51;21.77;;;10.30;;
31206;SDS011;17834;52.992;8.856;2023-05-07T02:41:17;18.83;;;10.20;;
31206;SDS011;17834;52.992;8.856;2023-05-07T02:43:43;21.88;;;10.15;;
31206;SDS011;17834;52.992;8.856;2023-05-07T02:46:08;21.25;;;10.05;;
31206;SDS011;17834;52.992;8.856;2023-05-07T02:48:34;18.40;;;9.02;;
31206;SDS011;17834;52.992;8.856;2023-05-07T02:51:00;19.15;;;9.90;;
31206;SDS011;17834;52.992;8.856;2023-05-07T02:53:26;21.30;;;9.93;;
31206;SDS011;17834;52.992;8.856;2023-05-07T02:55:55;21.10;;;10.82;;
31206;SDS011;17834;52.992;8.856;2023-05-07T02:58:22;21.63;;;10.68;;
31206;SDS011;17834;52.992;8.856;2023-05-07T03:00:47;23.02;;;10.90;;
31206;SDS011;17834;52.992;8.856;2023-05-07T03:03:13;21.23;;;10.70;;
31206;SDS011;17834;52.992;8.856;2023-05-07T03:05:39;21.08;;;9.98;;
31206;SDS011;17834;52.992;8.856;2023-05-07T03:08:05;21.52;;;10.15;;
31206;SDS011;17834;52.992;8.856;2023-05-07T03:10:31;22.83;;;10.93;;
31206;SDS011;17834;52.992;8.856;2023-05-07T03:12:56;22.25;;;11.13;;
31206;SDS011;17834;52.992;8.856;2023-05-07T03:15:22;22.63;;;10.75;;
31206;SDS011;17834;52.992;8.856;2023-05-07T03:17:48;20.33;;;9.73;;
31206;SDS011;17834;52.992;8.856;2023-05-07T03:20:13;17.95;;;9.93;;
31206;SDS011;17834;52.992;8.856;2023-05-07T03:22:39;18.55;;;9.48;;
31206;SDS011;17834;52.992;8.856;2023-05-07T03:25:06;16.85;;;9.20;;
31206;SDS011;17834;52.992;8.856;2023-05-07T03:27:32;24.25;;;9.90;;
31206;SDS011;17834;52.992;8.856;2023-05-07T03:29:58;17.90;;;9.80;;
31206;SDS011;17834;52.992;8.856;2023-05-07T03:32:23;17.83;;;9.52;;
31206;SDS011;17834;52.992;8.856;2023-05-07T03:34:49;18.20;;;9.63;;
31206;SDS011;17834;52.992;8.856;2023-05-07T03:37:15;22.60;;;9.80;;
31206;SDS011;17834;52.992;8.856;2023-05-07T03:39:40;20.75;;;9.90;;
31206;SDS011;17834;52.992;8.856;2023-05-07T03:42:06;20.45;;;10.00;;
31206;SDS011;17834;52.992;8.856;2023-05-07T03:44:32;21.00;;;10.32;;
31206;SDS011;17834;52.992;8.856;2023-05-07T03:46:57;23.58;;;10.48;;
31206;SDS011;17834;52.992;8.856;2023-05-07T03:49:23;21.73;;;10.60;;
31206;SDS011;17834;52.992;8.856;2023-05-07T03:51:48;19.05;;;8.85;;
31206;SDS011;17834;52.992;8.856;2023-05-07T03:54:14;21.10;;;10.48;;
31206;SDS011;17834;52.992;8.856;2023-05-07T03:56:40;21.50;;;9.95;;
31206;SDS011;17834;52.992;8.856;2023-05-07T03:59:06;21.80;;;9.90;;
31206;SDS011;17834;52.992;8.856;2023-05-07T04:01:31;21.08;;;10.63;;
31206;SDS011;17834;52.992;8.856;2023-05-07T04:03:57;21.83;;;11.05;;
31206;SDS011;17834;52.992;8.856;2023-05-07T04:06:22;23.42;;;10.73;;
31206;SDS011;17834;52.992;8.856;2023-05-07T04:08:48;25.90;;;10.25;;
31206;SDS011;17834;52.992;8.856;2023-05-07T04:11:14;20.95;;;10.15;;
31206;SDS011;17834;52.992;8.856;2023-05-07T04:13:39;23.90;;;10.77;;
31206;SDS011;17834;52.992;8.856;2023-05-07T04:16:05;19.20;;;10.05;;
31206;SDS011;17834;52.992;8.856;2023-05-07T04:18:31;20.90;;;10.60;;
31206;SDS011;17834;52.992;8.856;2023-05-07T04:20:56;21.70;;;10.70;;
31206;SDS011;17834;52.992;8.856;2023-05-07T04:23:22;20.17;;;10.77;;
31206;SDS011;17834;52.992;8.856;2023-05-07T04:25:47;21.83;;;10.75;;
31206;SDS011;17834;52.992;8.856;2023-05-07T04:28:13;20.80;;;10.43;;
31206;SDS011;17834;52.992;8.856;2023-05-07T04:30:38;19.00;;;10.35;;
31206;SDS011;17834;52.992;8.856;2023-05-07T04:33:04;25.40;;;12.60;;
31206;SDS011;17834;52.992;8.856;2023-05-07T04:35:31;22.60;;;11.35;;
31206;SDS011;17834;52.992;8.856;2023-05-07T04:37:57;23.75;;;10.98;;
31206;SDS011;17834;52.992;8.856;2023-05-07T04:40:23;23.42;;;10.98;;
31206;SDS011;17834;52.992;8.856;2023-05-07T04:42:48;20.25;;;9.77;;
31206;SDS011;17834;52.992;8.856;2023-05-07T04:45:14;19.73;;;10.80;;
31206;SDS011;17834;52.992;8.856;2023-05-07T04:47:40;23.38;;;10.05;;
31206;SDS011;17834;52.992;8.856;2023-05-07T04:50:06;21.80;;;10.45;;
31206;SDS011;17834;52.992;8.856;2023-05-07T04:52:33;20.30;;;9.60;;
31206;SDS011;17834;52.992;8.856;2023-05-07T04:54:59;15.68;;;8.30;;
31206;SDS011;17834;52.992;8.856;2023-05-07T04:57:25;18.77;;;9.77;;
31206;SDS011;17834;52.992;8.856;2023-05-07T04:59:51;22.85;;;9.48;;
31206;SDS011;17834;52.992;8.856;2023-05-07T05:02:17;21.85;;;10.13;;
31206;SDS011;17834;52.992;8.856;2023-05-07T05:04:42;24.73;;;10.35;;
31206;SDS011;17834;52.992;8.856;2023-05-07T05:07:08;18.75;;;10.02;;
31206;SDS011;17834;52.992;8.856;2023-05-07T05:09:33;17.88;;;9.57;;
31206;SDS011;17834;52.992;8.856;2023-05-07T05:11:59;24.02;;;10.48;;
31206;SDS011;17834;52.992;8.856;2023-05-07T05:14:24;19.30;;;9.75;;
31206;SDS011;17834;52.992;8.856;2023-05-07T05:16:50;16.85;;;9.30;;
31206;SDS011;17834;52.992;8.856;2023-05-07T05:19:16;23.90;;;9.15;;
31206;SDS011;17834;52.992;8.856;2023-05-07T05:21:41;15.13;;;8.65;;
31206;SDS011;17834;52.992;8.856;2023-05-07T05:24:07;19.50;;;9.13;;
31206;SDS011;17834;52.992;8.856;2023-05-07T05:26:33;15.93;;;9.27;;
31206;SDS011;17834;52.992;8.856;2023-05-07T05:28:59;16.85;;;8.45;;
31206;SDS011;17834;52.992;8.856;2023-05-07T05:31:24;17.83;;;8.48;;
31206;SDS011;17834;52.992;8.856;2023-05-07T05:33:50;17.52;;;8.85;;
31206;SDS011;17834;52.992;8.856;2023-05-07T05:36:16;17.10;;;8.77;;
31206;SDS011;17834;52.992;8.856;2023-05-07T05:38:41;17.20;;;8.68;;
31206;SDS011;17834;52.992;8.856;2023-05-07T05:41:07;15.30;;;7.63;;
31206;SDS011;17834;52.992;8.856;2023-05-07T05:43:32;14.80;;;8.15;;
31206;SDS011;17834;52.992;8.856;2023-05-07T05:45:58;13.27;;;8.52;;
31206;SDS011;17834;52.992;8.856;2023-05-07T05:48:24;14.93;;;7.38;;
31206;SDS011;17834;52.992;8.856;2023-05-07T05:50:49;16.30;;;8.93;;
31206;SDS011;17834;52.992;8.856;2023-05-07T05:53:15;16.52;;;8.32;;
31206;SDS011;17834;52.992;8.856;2023-05-07T05:55:41;14.95;;;7.80;;
31206;SDS011;17834;52.992;8.856;2023-05-07T05:58:07;14.70;;;8.10;;
31206;SDS011;17834;52.992;8.856;2023-05-07T06:00:33;12.65;;;7.47;;
31206;SDS011;17834;52.992;8.856;2023-05-07T06:02:59;16.65;;;8.02;;
31206;SDS011;17834;52.992;8.856;2023-05-07T06:05:24;14.55;;;7.30;;
31206;SDS011;17834;52.992;8.856;2023-05-07T06:07:50;11.68;;;6.90;;
31206;SDS011;17834;52.992;8.856;2023-05-07T06:10:16;13.32;;;7.35;;
31206;SDS011;17834;52.992;8.856;2023-05-07T06:12:41;13.95;;;7.10;;
31206;SDS011;17834;52.992;8.856;2023-05-07T06:15:07;12.93;;;6.72;;
31206;SDS011;17834;52.992;8.856;2023-05-07T06:17:33;11.95;;;6.95;;
31206;SDS011;17834;52.992;8.856;2023-05-07T06:19:59;10.73;;;6.28;;
31206;SDS011;17834;52.992;8.856;2023-05-07T06:22:24;14.13;;;7.22;;
31206;SDS011;17834;52.992;8.856;2023-05-07T06:24:50;12.38;;;7.15;;
31206;SDS011;17834;52.992;8.856;2023-05-07T06:27:16;13.25;;;6.93;;
31206;SDS011;17834;52.992;8.856;2023-05-07T06:29:41;9.57;;;5.88;;
31206;SDS011;17834;52.992;8.856;2023-05-07T06:32:07;14.13;;;8.15;;
31206;SDS011;17834;52.992;8.856;2023-05-07T06:34:34;12.57;;;7.22;;
31206;SDS011;17834;52.992;8.856;2023-05-07T06:37:00;13.32;;;7.55;;
31206;SDS011;17834;52.992;8.856;2023-05-07T06:39:25;12.02;;;6.88;;
31206;SDS011;17834;52.992;8.856;2023-05-07T06:41:51;10.77;;;6.63;;
31206;SDS011;17834;52.992;8.856;2023-05-07T06:44:17;10.68;;;6.32;;
31206;SDS011;17834;52.992;8.856;2023-05-07T06:46:42;12.68;;;6.95;;
31206;SDS011;17834;52.992;8.856;2023-05-07T06:49:08;12.27;;;6.80;;
31206;SDS011;17834;52.992;8.856;2023-05-07T06:51:33;13.07;;;7.63;;
31206;SDS011;17834;52.992;8.856;2023-05-07T06:53:59;12.88;;;7.95;;
31206;SDS011;17834;52.992;8.856;2023-05-07T06:56:25;12.85;;;7.45;;
31206;SDS011;17834;52.992;8.856;2023-05-07T06:58:50;14.45;;;7.00;;
31206;SDS011;17834;52.992;8.856;2023-05-07T07:01:16;12.32;;;7.45;;
31206;SDS011;17834;52.992;8.856;2023-05-07T07:03:41;15.30;;;8.23;;
31206;SDS011;17834;52.992;8.856;2023-05-07T07:06:07;11.90;;;7.78;;
31206;SDS011;17834;52.992;8.856;2023-05-07T07:08:33;11.18;;;6.95;;
31206;SDS011;17834;52.992;8.856;2023-05-07T07:10:59;10.30;;;7.00;;
31206;SDS011;17834;52.992;8.856;2023-05-07T07:13:25;12.27;;;7.30;;
31206;SDS011;17834;52.992;8.856;2023-05-07T07:15:51;10.68;;;6.55;;
31206;SDS011;17834;52.992;8.856;2023-05-07T07:18:17;13.15;;;7.45;;
31206;SDS011;17834;52.992;8.856;2023-05-07T07:20:43;11.80;;;7.20;;
31206;SDS011;17834;52.992;8.856;2023-05-07T07:23:09;13.32;;;7.53;;
31206;SDS011;17834;52.992;8.856;2023-05-07T07:25:35;13.15;;;7.63;;
31206;SDS011;17834;52.992;8.856;2023-05-07T07:28:00;13.60;;;7.82;;
31206;SDS011;17834;52.992;8.856;2023-05-07T07:30:26;14.38;;;7.45;;
31206;SDS011;17834;52.992;8.856;2023-05-07T07:32:52;14.82;;;7.47;;
31206;SDS011;17834;52.992;8.856;2023-05-07T07:35:17;13.43;;;8.00;;
31206;SDS011;17834;52.992;8.856;2023-05-07T07:37:43;13.48;;;8.15;;
31206;SDS011;17834;52.992;8.856;2023-05-07T07:40:09;10.98;;;7.57;;
31206;SDS011;17834;52.992;8.856;2023-05-07T07:42:36;11.05;;;7.28;;
31206;SDS011;17834;52.992;8.856;2023-05-07T07:45:01;10.93;;;6.55;;
31206;SDS011;17834;52.992;8.856;2023-05-07T07:47:28;11.35;;;7.13;;
31206;SDS011;17834;52.992;8.856;2023-05-07T07:49:53;11.50;;;7.13;;
31206;SDS011;17834;52.992;8.856;2023-05-07T07:52:19;11.13;;;6.70;;
31206;SDS011;17834;52.992;8.856;2023-05-07T07:54:44;12.18;;;6.95;;
31206;SDS011;17834;52.992;8.856;2023-05-07T07:57:10;12.52;;;6.88;;
31206;SDS011;17834;52.992;8.856;2023-05-07T07:59:36;13.15;;;7.25;;
31206;SDS011;17834;52.992;8.856;2023-05-07T08:02:01;11.88;;;7.35;;
31206;SDS011;17834;52.992;8.856;2023-05-07T08:04:27;11.55;;;6.22;;
31206;SDS011;17834;52.992;8.856;2023-05-07T08:06:52;12.23;;;6.50;;
31206;SDS011;17834;52.992;8.856;2023-05-07T08:09:19;10.10;;;6.63;;
31206;SDS011;17834;52.992;8.856;2023-05-07T08:11:45;9.27;;;6.15;;
31206;SDS011;17834;52.992;8.856;2023-05-07T08:14:11;9.98;;;6.50;;
31206;SDS011;17834;52.992;8.856;2023-05-07T08:16:36;9.57;;;6.38;;
31206;SDS011;17834;52.992;8.856;2023-05-07T08:19:02;10.63;;;6.65;;
31206;SDS011;17834;52.992;8.856;2023-05-07T08:21:28;13.60;;;7.22;;
31206;SDS011;17834;52.992;8.856;2023-05-07T08:23:53;9.02;;;6.03;;
31206;SDS011;17834;52.992;8.856;2023-05-07T08:26:19;9.18;;;6.10;;
31206;SDS011;17834;52.992;8.856;2023-05-07T08:28:45;11.10;;;6.25;;
31206;SDS011;17834;52.992;8.856;2023-05-07T08:31:11;8.88;;;6.07;;
31206;SDS011;17834;52.992;8.856;2023-05-07T08:33:36;7.97;;;5.15;;
31206;SDS011;17834;52.992;8.856;2023-05-07T08:36:03;9.15;;;6.03;;
31206;SDS011;17834;52.992;8.856;2023-05-07T08:38:29;8.95;;;5.63;;
31206;SDS011;17834;52.992;8.856;2023-05-07T08:40:55;9.18;;;6.43;;
31206;SDS011;17834;52.992;8.856;2023-05-07T08:43:20;8.52;;;5.00;;
31206;SDS011;17834;52.992;8.856;2023-05-07T08:45:48;7.82;;;5.50;;
31206;SDS011;17834;52.992;8.856;2023-05-07T08:48:18;8.25;;;5.40;;
31206;SDS011;17834;52.992;8.856;2023-05-07T08:50:50;10.05;;;5.75;;
31206;SDS011;17834;52.992;8.856;2023-05-07T08:53:16;8.73;;;5.47;;
31206;SDS011;17834;52.992;8.856;2023-05-07T08:55:42;8.60;;;5.07;;
31206;SDS011;17834;52.992;8.856;2023-05-07T08:58:08;8.75;;;5.68;;
31206;SDS011;17834;52.992;8.856;2023-05-07T09:00:34;8.02;;;5.25;;
31206;SDS011;17834;52.992;8.856;2023-05-07T09:03:02;8.82;;;5.82;;
31206;SDS011;17834;52.992;8.856;2023-05-07T09:05:27;7.45;;;5.60;;
31206;SDS011;17834;52.992;8.856;2023-05-07T09:07:53;8.63;;;5.82;;
31206;SDS011;17834;52.992;8.856;2023-05-07T09:10:20;9.27;;;5.57;;
31206;SDS011;17834;52.992;8.856;2023-05-07T09:12:46;8.13;;;5.40;;
31206;SDS011;17834;52.992;8.856;2023-05-07T09:15:12;7.82;;;5.43;;
31206;SDS011;17834;52.992;8.856;2023-05-07T09:17:38;8.73;;;5.43;;
31206;SDS011;17834;52.992;8.856;2023-05-07T09:20:04;8.63;;;5.72;;
31206;SDS011;17834;52.992;8.856;2023-05-07T09:22:34;8.13;;;5.80;;
31206;SDS011;17834;52.992;8.856;2023-05-07T09:25:02;8.00;;;5.10;;
31206;SDS011;17834;52.992;8.856;2023-05-07T09:27:27;8.52;;;6.03;;
31206;SDS011;17834;52.992;8.856;2023-05-07T09:29:53;9.70;;;6.38;;
31206;SDS011;17834;52.992;8.856;2023-05-07T09:32:19;7.50;;;5.15;;
31206;SDS011;17834;52.992;8.856;2023-05-07T09:34:44;9.93;;;6.25;;
31206;SDS011;17834;52.992;8.856;2023-05-07T09:37:12;8.68;;;5.55;;
31206;SDS011;17834;52.992;8.856;2023-05-07T09:39:42;9.70;;;6.32;;
31206;SDS011;17834;52.992;8.856;2023-05-07T09:42:12;10.45;;;6.13;;
31206;SDS011;17834;52.992;8.856;2023-05-07T09:44:39;9.48;;;6.15;;
31206;SDS011;17834;52.992;8.856;2023-05-07T09:47:05;10.23;;;6.20;;
31206;SDS011;17834;52.992;8.856;2023-05-07T09:49:33;10.27;;;6.70;;
31206;SDS011;17834;52.992;8.856;2023-05-07T09:52:01;9.85;;;6.30;;
31206;SDS011;17834;52.992;8.856;2023-05-07T09:54:28;9.98;;;6.32;;
31206;SDS011;17834;52.992;8.856;2023-05-07T09:56:54;10.90;;;5.78;;
31206;SDS011;17834;52.992;8.856;2023-05-07T09:59:21;9.25;;;6.13;;
31206;SDS011;17834;52.992;8.856;2023-05-07T10:01:49;9.77;;;6.93;;
31206;SDS011;17834;52.992;8.856;2023-05-07T10:04:17;9.38;;;6.38;;
31206;SDS011;17834;52.992;8.856;2023-05-07T10:06:43;10.15;;;6.32;;
31206;SDS011;17834;52.992;8.856;2023-05-07T10:09:09;10.07;;;6.70;;
31206;SDS011;17834;52.992;8.856;2023-05-07T10:11:36;9.25;;;6.20;;
31206;SDS011;17834;52.992;8.856;2023-05-07T10:14:02;9.50;;;6.32;;
31206;SDS011;17834;52.992;8.856;2023-05-07T10:16:31;11.82;;;7.18;;
31206;SDS011;17834;52.992;8.856;2023-05-07T10:19:01;9.63;;;6.78;;
31206;SDS011;17834;52.992;8.856;2023-05-07T10:21:28;9.95;;;6.50;;
31206;SDS011;17834;52.992;8.856;2023-05-07T10:23:58;10.65;;;6.30;;
31206;SDS011;17834;52.992;8.856;2023-05-07T10:26:27;11.07;;;6.82;;
31206;SDS011;17834;52.992;8.856;2023-05-07T10:28:57;11.93;;;6.72;;
31206;SDS011;17834;52.992;8.856;2023-05-07T10:31:37;8.85;;;6.05;;
31206;SDS011;17834;52.992;8.856;2023-05-07T10:34:13;10.73;;;6.75;;
31206;SDS011;17834;52.992;8.856;2023-05-07T10:36:42;9.20;;;6.60;;
31206;SDS011;17834;52.992;8.856;2023-05-07T10:39:09;13.18;;;7.57;;
31206;SDS011;17834;52.992;8.856;2023-05-07T10:41:35;9.55;;;6.50;;
31206;SDS011;17834;52.992;8.856;2023-05-07T10:44:01;9.90;;;6.93;;
31206;SDS011;17834;52.992;8.856;2023-05-07T10:46:27;13.27;;;7.32;;
31206;SDS011;17834;52.992;8.856;2023-05-07T10:51:28;10.05;;;7.15;;
31206;SDS011;17834;52.992;8.856;2023-05-07T10:54:18;12.00;;;7.50;;
31206;SDS011;17834;52.992;8.856;2023-05-07T10:56:44;11.25;;;6.50;;
31206;SDS011;17834;52.992;8.856;2023-05-07T11:01:56;10.35;;;6.95;;
31206;SDS011;17834;52.992;8.856;2023-05-07T11:04:23;12.57;;;7.88;;
31206;SDS011;17834;52.992;8.856;2023-05-07T11:12:17;8.90;;;6.50;;
31206;SDS011;17834;52.992;8.856;2023-05-07T11:15:10;13.27;;;7.88;;
31206;SDS011;17834;52.992;8.856;2023-05-07T11:17:57;10.48;;;6.65;;
31206;SDS011;17834;52.992;8.856;2023-05-07T11:25:59;12.95;;;7.22;;
31206;SDS011;17834;52.992;8.856;2023-05-07T11:28:27;10.88;;;6.93;;
31206;SDS011;17834;52.992;8.856;2023-05-07T11:30:53;11.05;;;7.45;;
31206;SDS011;17834;52.992;8.856;2023-05-07T11:33:19;9.52;;;6.20;;
31206;SDS011;17834;52.992;8.856;2023-05-07T11:35:45;8.77;;;6.28;;
31206;SDS011;17834;52.992;8.856;2023-05-07T11:38:12;8.15;;;5.80;;
31206;SDS011;17834;52.992;8.856;2023-05-07T11:40:54;7.75;;;5.20;;
31206;SDS011;17834;52.992;8.856;2023-05-07T11:43:25;7.43;;;5.35;;
31206;SDS011;17834;52.992;8.856;2023-05-07T11:45:51;7.88;;;5.85;;
31206;SDS011;17834;52.992;8.856;2023-05-07T11:48:17;9.18;;;5.82;;
31206;SDS011;17834;52.992;8.856;2023-05-07T11:53:38;7.90;;;6.03;;
31206;SDS011;17834;52.992;8.856;2023-05-07T11:56:05;7.18;;;5.07;;
31206;SDS011;17834;52.992;8.856;2023-05-07T11:58:35;9.70;;;5.65;;
31206;SDS011;17834;52.992;8.856;2023-05-07T12:01:01;8.02;;;5.68;;
31206;SDS011;17834;52.992;8.856;2023-05-07T12:03:27;7.35;;;5.32;;
31206;SDS011;17834;52.992;8.856;2023-05-07T12:05:52;8.02;;;5.65;;
31206;SDS011;17834;52.992;8.856;2023-05-07T12:08:18;9.40;;;5.90;;
31206;SDS011;17834;52.992;8.856;2023-05-07T12:10:45;8.48;;;6.18;;
31206;SDS011;17834;52.992;8.856;2023-05-07T12:13:19;9.35;;;6.65;;
31206;SDS011;17834;52.992;8.856;2023-05-07T12:15:52;8.32;;;5.18;;
31206;SDS011;17834;52.992;8.856;2023-05-07T12:18:19;8.35;;;6.20;;
31206;SDS011;17834;52.992;8.856;2023-05-07T12:20:46;7.90;;;5.35;;
31206;SDS011;17834;52.992;8.856;2023-05-07T12:23:12;7.75;;;5.75;;
31206;SDS011;17834;52.992;8.856;2023-05-07T12:25:38;6.63;;;4.60;;
31206;SDS011;17834;52.992;8.856;2023-05-07T12:28:05;8.88;;;6.03;;
31206;SDS011;17834;52.992;8.856;2023-05-07T12:30:40;9.10;;;5.80;;
31206;SDS011;17834;52.992;8.856;2023-05-07T12:33:06;7.40;;;5.57;;
31206;SDS011;17834;52.992;8.856;2023-05-07T12:35:35;8.48;;;5.30;;
31206;SDS011;17834;52.992;8.856;2023-05-07T12:38:12;7.88;;;5.40;;
31206;SDS011;17834;52.992;8.856;2023-05-07T12:40:40;8.32;;;5.60;;
31206;SDS011;17834;52.992;8.856;2023-05-07T12:45:54;7.22;;;5.22;;
31206;SDS011;17834;52.992;8.856;2023-05-07T12:48:21;8.52;;;5.40;;
31206;SDS011;17834;52.992;8.856;2023-05-07T12:50:51;6.97;;;5.38;;
31206;SDS011;17834;52.992;8.856;2023-05-07T12:53:19;7.03;;;5.00;;
31206;SDS011;17834;52.992;8.856;2023-05-07T12:55:47;9.52;;;5.90;;
31206;SDS011;17834;52.992;8.856;2023-05-07T12:58:17;7.15;;;5.25;;
31206;SDS011;17834;52.992;8.856;2023-05-07T13:00:48;7.47;;;5.38;;
31206;SDS011;17834;52.992;8.856;2023-05-07T13:03:21;6.18;;;4.43;;
31206;SDS011;17834;52.992;8.856;2023-05-07T13:05:48;8.18;;;5.25;;
31206;SDS011;17834;52.992;8.856;2023-05-07T13:08:22;6.72;;;4.80;;
31206;SDS011;17834;52.992;8.856;2023-05-07T13:10:52;9.95;;;4.80;;
31206;SDS011;17834;52.992;8.856;2023-05-07T13:13:18;7.80;;;4.90;;
31206;SDS011;17834;52.992;8.856;2023-05-07T13:15:45;7.22;;;5.15;;
31206;SDS011;17834;52.992;8.856;2023-05-07T13:18:11;6.82;;;4.65;;
31206;SDS011;17834;52.992;8.856;2023-05-07T13:20:36;5.55;;;4.07;;
31206;SDS011;17834;52.992;8.856;2023-05-07T13:23:02;6.75;;;4.47;;
31206;SDS011;17834;52.992;8.856;2023-05-07T13:25:29;7.70;;;4.72;;
31206;SDS011;17834;52.992;8.856;2023-05-07T13:27:56;6.40;;;4.50;;
31206;SDS011;17834;52.992;8.856;2023-05-07T13:30:22;11.00;;;4.45;;
31206;SDS011;17834;52.992;8.856;2023-05-07T13:32:47;5.72;;;4.43;;
31206;SDS011;17834;52.992;8.856;2023-05-07T13:35:13;6.63;;;4.30;;
31206;SDS011;17834;52.992;8.856;2023-05-07T13:37:39;5.47;;;3.95;;
31206;SDS011;17834;52.992;8.856;2023-05-07T13:40:05;6.30;;;4.35;;
31206;SDS011;17834;52.992;8.856;2023-05-07T13:42:31;6.03;;;4.07;;
31206;SDS011;17834;52.992;8.856;2023-05-07T13:44:56;6.93;;;4.70;;
31206;SDS011;17834;52.992;8.856;2023-05-07T13:47:22;5.50;;;4.22;;
31206;SDS011;17834;52.992;8.856;2023-05-07T13:49:48;7.65;;;4.30;;
31206;SDS011;17834;52.992;8.856;2023-05-07T13:52:16;6.18;;;4.28;;
31206;SDS011;17834;52.992;8.856;2023-05-07T13:54:42;7.40;;;4.80;;
31206;SDS011;17834;52.992;8.856;2023-05-07T13:57:08;6.28;;;4.30;;
31206;SDS011;17834;52.992;8.856;2023-05-07T13:59:33;7.53;;;4.40;;
31206;SDS011;17834;52.992;8.856;2023-05-07T14:01:59;7.78;;;5.78;;
31206;SDS011;17834;52.992;8.856;2023-05-07T14:04:25;7.25;;;5.32;;
31206;SDS011;17834;52.992;8.856;2023-05-07T14:06:50;7.43;;;5.18;;
31206;SDS011;17834;52.992;8.856;2023-05-07T14:09:16;7.93;;;5.00;;
31206;SDS011;17834;52.992;8.856;2023-05-07T14:11:41;7.40;;;4.90;;
31206;SDS011;17834;52.992;8.856;2023-05-07T14:14:07;7.85;;;5.47;;
31206;SDS011;17834;52.992;8.856;2023-05-07T14:16:35;6.40;;;4.90;;
31206;SDS011;17834;52.992;8.856;2023-05-07T14:19:01;7.13;;;5.22;;
31206;SDS011;17834;52.992;8.856;2023-05-07T14:21:27;7.50;;;5.25;;
31206;SDS011;17834;52.992;8.856;2023-05-07T14:23:52;8.18;;;5.57;;
31206;SDS011;17834;52.992;8.856;2023-05-07T14:26:18;7.88;;;5.35;;
31206;SDS011;17834;52.992;8.856;2023-05-07T14:28:44;8.18;;;5.53;;
31206;SDS011;17834;52.992;8.856;2023-05-07T14:31:11;8.45;;;5.55;;
31206;SDS011;17834;52.992;8.856;2023-05-07T14:33:37;8.30;;;5.55;;
31206;SDS011;17834;52.992;8.856;2023-05-07T14:36:02;8.05;;;5.38;;
31206;SDS011;17834;52.992;8.856;2023-05-07T14:38:28;8.48;;;5.50;;
31206;SDS011;17834;52.992;8.856;2023-05-07T14:40:55;7.70;;;5.60;;
31206;SDS011;17834;52.992;8.856;2023-05-07T14:43:21;8.30;;;5.85;;
31206;SDS011;17834;52.992;8.856;2023-05-07T14:45:47;7.78;;;5.60;;
31206;SDS011;17834;52.992;8.856;2023-05-07T14:48:12;7.78;;;5.05;;
31206;SDS011;17834;52.992;8.856;2023-05-07T14:50:40;7.80;;;5.43;;
31206;SDS011;17834;52.992;8.856;2023-05-07T14:53:06;8.48;;;5.43;;